sensor_id;sensor_type;location;lat;lon;timestamp;pressure;altitude;pressure_sealevel;temperature;humidity
36284;BME280;56085;48.910;9.478;2023-01-31T00:01:17;99036.50;;;1.82;88.09
36284;BME280;56085;48.910;9.478;2023-01-31T00:03:43;99040.06;;;1.83;87.93
36284;BME280;56085;48.910;9.478;2023-01-31T00:06:16;99040.56;;;1.85;87.55
36284;BME280;56085;48.910;9.478;2023-01-31T00:08:42;99050.38;;;1.86;87.79
36284;BME280;56085;48.910;9.478;2023-01-31T00:11:07;99047.66;;;1.86;87.58
36284;BME280;56085;48.910;9.478;2023-01-31T00:13:33;99042.72;;;1.88;87.76
36284;BME280;56085;48.910;9.478;2023-01-31T00:15:58;99040.25;;;1.91;87.76
36284;BME280;56085;48.910;9.478;2023-01-31T00:18:23;99044.88;;;1.91;87.68
36284;BME280;56085;48.910;9.478;2023-01-31T00:20:48;99047.03;;;1.94;87.52
36284;BME280;56085;48.910;9.478;2023-01-31T00:23:13;99035.03;;;1.95;87.55
36284;BME280;56085;48.910;9.478;2023-01-31T00:25:39;99038.84;;;1.94;87.61
36284;BME280;56085;48.910;9.478;2023-01-31T00:28:04;99036.66;;;1.96;87.54
36284;BME280;56085;48.910;9.478;2023-01-31T00:30:29;99029.81;;;1.99;87.44
36284;BME280;56085;48.910;9.478;2023-01-31T00:32:54;99032.00;;;1.97;87.56
36284;BME280;56085;48.910;9.478;2023-01-31T00:35:19;99033.34;;;1.99;87.05
36284;BME280;56085;48.910;9.478;2023-01-31T00:37:45;99039.91;;;1.98;87.01
36284;BME280;56085;48.910;9.478;2023-01-31T00:40:10;99051.94;;;1.97;86.73
36284;BME280;56085;48.910;9.478;2023-01-31T00:42:35;99048.38;;;1.97;86.73
36284;BME280;56085;48.910;9.478;2023-01-31T00:45:01;99046.72;;;1.96;86.96
36284;BME280;56085;48.910;9.478;2023-01-31T00:47:26;99048.38;;;1.97;86.71
36284;BME280;56085;48.910;9.478;2023-01-31T00:49:51;99049.22;;;1.97;86.66
36284;BME280;56085;48.910;9.478;2023-01-31T00:52:16;99053.03;;;1.96;86.37
36284;BME280;56085;48.910;9.478;2023-01-31T00:54:42;99051.97;;;1.92;86.31
36284;BME280;56085;48.910;9.478;2023-01-31T00:57:07;99055.22;;;1.94;86.26
36284;BME280;56085;48.910;9.478;2023-01-31T00:59:32;99046.00;;;1.90;86.43
36284;BME280;56085;48.910;9.478;2023-01-31T01:01:57;99048.94;;;1.94;86.29
36284;BME280;56085;48.910;9.478;2023-01-31T01:04:22;99046.22;;;1.94;86.55
36284;BME280;56085;48.910;9.478;2023-01-31T01:06:48;99042.97;;;1.91;86.30
36284;BME280;56085;48.910;9.478;2023-01-31T01:09:14;99048.44;;;1.91;86.15
36284;BME280;56085;48.910;9.478;2023-01-31T01:11:39;99044.66;;;1.87;86.25
36284;BME280;56085;48.910;9.478;2023-01-31T01:14:04;99047.59;;;1.91;86.08
36284;BME280;56085;48.910;9.478;2023-01-31T01:16:34;99046.28;;;1.88;86.15
36284;BME280;56085;48.910;9.478;2023-01-31T01:19:00;99051.72;;;1.88;86.11
36284;BME280;56085;48.910;9.478;2023-01-31T01:21:26;99047.38;;;1.87;85.75
36284;BME280;56085;48.910;9.478;2023-01-31T01:23:54;99051.97;;;1.92;86.21
36284;BME280;56085;48.910;9.478;2023-01-31T01:26:21;99053.06;;;1.91;85.87
36284;BME280;56085;48.910;9.478;2023-01-31T01:28:46;99046.78;;;1.90;85.70
36284;BME280;56085;48.910;9.478;2023-01-31T01:31:12;99057.72;;;1.85;85.58
36284;BME280;56085;48.910;9.478;2023-01-31T01:33:40;99054.50;;;1.83;85.69
36284;BME280;56085;48.910;9.478;2023-01-31T01:36:06;99054.78;;;1.82;85.33
36284;BME280;56085;48.910;9.478;2023-01-31T01:38:34;99057.50;;;1.82;85.45
36284;BME280;56085;48.910;9.478;2023-01-31T01:41:00;99066.47;;;1.82;85.32
36284;BME280;56085;48.910;9.478;2023-01-31T01:43:45;99062.16;;;1.81;85.33
36284;BME280;56085;48.910;9.478;2023-01-31T01:46:12;99065.41;;;1.83;85.34
36284;BME280;56085;48.910;9.478;2023-01-31T01:48:39;99059.66;;;1.85;85.26
36284;BME280;56085;48.910;9.478;2023-01-31T01:51:05;99055.28;;;1.84;85.05
36284;BME280;56085;48.910;9.478;2023-01-31T01:53:31;99065.09;;;1.85;85.07
36284;BME280;56085;48.910;9.478;2023-01-31T01:56:01;99059.94;;;1.83;84.77
36284;BME280;56085;48.910;9.478;2023-01-31T01:58:29;99058.88;;;1.79;84.73
36284;BME280;56085;48.910;9.478;2023-01-31T02:00:55;99067.88;;;1.80;84.96
36284;BME280;56085;48.910;9.478;2023-01-31T02:03:21;99073.34;;;1.80;84.53
36284;BME280;56085;48.910;9.478;2023-01-31T02:05:57;99069.56;;;1.76;84.80
36284;BME280;56085;48.910;9.478;2023-01-31T02:08:23;99068.72;;;1.75;84.73
36284;BME280;56085;48.910;9.478;2023-01-31T02:10:53;99066.56;;;1.72;84.69
36284;BME280;56085;48.910;9.478;2023-01-31T02:13:20;99064.38;;;1.74;84.58
36284;BME280;56085;48.910;9.478;2023-01-31T02:15:45;99067.91;;;1.74;84.37
36284;BME280;56085;48.910;9.478;2023-01-31T02:18:11;99067.41;;;1.72;84.32
36284;BME280;56085;48.910;9.478;2023-01-31T02:20:48;99069.84;;;1.74;84.34
36284;BME280;56085;48.910;9.478;2023-01-31T02:23:37;99078.00;;;1.74;84.45
36284;BME280;56085;48.910;9.478;2023-01-31T02:26:13;99076.38;;;1.73;84.54
36284;BME280;56085;48.910;9.478;2023-01-31T02:34:04;99079.09;;;1.73;84.45
36284;BME280;56085;48.910;9.478;2023-01-31T02:41:44;99090.25;;;1.77;84.35
36284;BME280;56085;48.910;9.478;2023-01-31T02:44:31;99083.47;;;1.74;84.53
36284;BME280;56085;48.910;9.478;2023-01-31T02:47:24;99086.19;;;1.74;84.46
36284;BME280;56085;48.910;9.478;2023-01-31T02:49:51;99093.81;;;1.72;84.26
36284;BME280;56085;48.910;9.478;2023-01-31T02:54:51;99094.94;;;1.71;84.26
36284;BME280;56085;48.910;9.478;2023-01-31T02:57:35;99091.94;;;1.67;84.36
36284;BME280;56085;48.910;9.478;2023-01-31T03:00:01;99087.59;;;1.66;84.38
36284;BME280;56085;48.910;9.478;2023-01-31T03:02:27;99100.69;;;1.64;84.67
36284;BME280;56085;48.910;9.478;2023-01-31T03:04:53;99091.16;;;1.62;84.35
36284;BME280;56085;48.910;9.478;2023-01-31T03:07:25;99093.38;;;1.60;84.60
36284;BME280;56085;48.910;9.478;2023-01-31T03:17:49;99074.63;;;1.48;84.91
36284;BME280;56085;48.910;9.478;2023-01-31T03:22:45;99083.63;;;1.48;85.79
36284;BME280;56085;48.910;9.478;2023-01-31T03:25:12;99085.53;;;1.48;85.42
36284;BME280;56085;48.910;9.478;2023-01-31T03:27:38;99095.59;;;1.47;85.71
36284;BME280;56085;48.910;9.478;2023-01-31T03:30:07;99085.28;;;1.44;86.11
36284;BME280;56085;48.910;9.478;2023-01-31T03:32:35;99088.84;;;1.45;86.26
36284;BME280;56085;48.910;9.478;2023-01-31T03:35:04;99104.91;;;1.46;86.09
36284;BME280;56085;48.910;9.478;2023-01-31T03:39:56;99102.47;;;1.45;86.60
36284;BME280;56085;48.910;9.478;2023-01-31T03:47:36;99104.13;;;1.41;86.68
36284;BME280;56085;48.910;9.478;2023-01-31T03:50:04;99110.66;;;1.39;87.05
36284;BME280;56085;48.910;9.478;2023-01-31T03:52:36;99111.75;;;1.38;87.41
36284;BME280;56085;48.910;9.478;2023-01-31T03:55:11;99106.56;;;1.37;87.55
36284;BME280;56085;48.910;9.478;2023-01-31T03:57:39;99104.69;;;1.37;87.46
36284;BME280;56085;48.910;9.478;2023-01-31T04:00:07;99111.75;;;1.38;87.58
36284;BME280;56085;48.910;9.478;2023-01-31T04:02:34;99114.75;;;1.37;87.57
36284;BME280;56085;48.910;9.478;2023-01-31T04:05:12;99124.56;;;1.38;87.67
36284;BME280;56085;48.910;9.478;2023-01-31T04:07:39;99128.09;;;1.38;87.66
36284;BME280;56085;48.910;9.478;2023-01-31T04:10:05;99146.34;;;1.38;87.89
36284;BME280;56085;48.910;9.478;2023-01-31T04:12:36;99137.38;;;1.37;87.69
36284;BME280;56085;48.910;9.478;2023-01-31T04:15:02;99139.53;;;1.41;87.83
36284;BME280;56085;48.910;9.478;2023-01-31T04:17:27;99141.16;;;1.42;87.82
36284;BME280;56085;48.910;9.478;2023-01-31T04:19:52;99137.91;;;1.39;87.84
36284;BME280;56085;48.910;9.478;2023-01-31T04:22:18;99138.69;;;1.40;87.75
36284;BME280;56085;48.910;9.478;2023-01-31T04:24:43;99139.25;;;1.37;88.03
36284;BME280;56085;48.910;9.478;2023-01-31T04:27:08;99132.72;;;1.38;88.29
36284;BME280;56085;48.910;9.478;2023-01-31T04:29:33;99143.09;;;1.36;88.29
36284;BME280;56085;48.910;9.478;2023-01-31T04:31:58;99138.47;;;1.36;88.60
36284;BME280;56085;48.910;9.478;2023-01-31T04:34:23;99130.56;;;1.35;88.23
36284;BME280;56085;48.910;9.478;2023-01-31T04:36:49;99131.41;;;1.30;88.31
36284;BME280;56085;48.910;9.478;2023-01-31T04:39:14;99129.50;;;1.31;88.45
36284;BME280;56085;48.910;9.478;2023-01-31T04:41:40;99138.75;;;1.30;88.58
36284;BME280;56085;48.910;9.478;2023-01-31T04:44:05;99138.22;;;1.28;88.49
36284;BME280;56085;48.910;9.478;2023-01-31T04:46:30;99145.59;;;1.27;88.55
36284;BME280;56085;48.910;9.478;2023-01-31T04:48:55;99134.69;;;1.27;88.88
36284;BME280;56085;48.910;9.478;2023-01-31T04:51:21;99130.06;;;1.28;88.64
36284;BME280;56085;48.910;9.478;2023-01-31T04:53:46;99128.97;;;1.24;88.79
36284;BME280;56085;48.910;9.478;2023-01-31T04:56:11;99129.78;;;1.24;88.74
36284;BME280;56085;48.910;9.478;2023-01-31T04:58:36;99122.44;;;1.25;88.85
36284;BME280;56085;48.910;9.478;2023-01-31T05:01:01;99134.16;;;1.25;89.23
36284;BME280;56085;48.910;9.478;2023-01-31T05:03:27;99126.81;;;1.26;88.69
36284;BME280;56085;48.910;9.478;2023-01-31T05:05:52;99127.63;;;1.21;88.93
36284;BME280;56085;48.910;9.478;2023-01-31T05:08:17;99122.72;;;1.23;88.99
36284;BME280;56085;48.910;9.478;2023-01-31T05:10:42;99120.28;;;1.21;88.72
36284;BME280;56085;48.910;9.478;2023-01-31T05:13:08;99128.16;;;1.23;88.80
36284;BME280;56085;48.910;9.478;2023-01-31T05:15:33;99131.41;;;1.25;88.92
36284;BME280;56085;48.910;9.478;2023-01-31T05:17:58;99135.22;;;1.24;88.81
36284;BME280;56085;48.910;9.478;2023-01-31T05:20:34;99126.53;;;1.27;88.80
36284;BME280;56085;48.910;9.478;2023-01-31T05:23:02;99132.25;;;1.26;89.12
36284;BME280;56085;48.910;9.478;2023-01-31T05:25:27;99130.63;;;1.25;88.87
36284;BME280;56085;48.910;9.478;2023-01-31T05:27:53;99133.06;;;1.21;88.75
36284;BME280;56085;48.910;9.478;2023-01-31T05:30:18;99128.47;;;1.16;89.30
36284;BME280;56085;48.910;9.478;2023-01-31T05:32:44;99126.00;;;1.15;88.98
36284;BME280;56085;48.910;9.478;2023-01-31T05:35:10;99136.38;;;1.13;88.94
36284;BME280;56085;48.910;9.478;2023-01-31T05:37:35;99137.19;;;1.13;88.72
36284;BME280;56085;48.910;9.478;2023-01-31T05:40:00;99137.22;;;1.08;89.00
36284;BME280;56085;48.910;9.478;2023-01-31T05:42:25;99135.88;;;1.06;89.25
36284;BME280;56085;48.910;9.478;2023-01-31T05:44:51;99129.88;;;1.03;89.08
36284;BME280;56085;48.910;9.478;2023-01-31T05:47:16;99138.03;;;1.03;88.90
36284;BME280;56085;48.910;9.478;2023-01-31T05:49:41;99142.69;;;1.03;89.02
36284;BME280;56085;48.910;9.478;2023-01-31T05:52:06;99143.75;;;1.02;89.22
36284;BME280;56085;48.910;9.478;2023-01-31T05:54:31;99140.75;;;1.03;89.19
36284;BME280;56085;48.910;9.478;2023-01-31T05:56:57;99140.22;;;1.01;89.44
36284;BME280;56085;48.910;9.478;2023-01-31T05:59:22;99134.25;;;0.99;89.14
36284;BME280;56085;48.910;9.478;2023-01-31T06:01:47;99128.00;;;0.94;89.28
36284;BME280;56085;48.910;9.478;2023-01-31T06:04:12;99136.47;;;0.92;89.22
36284;BME280;56085;48.910;9.478;2023-01-31T06:06:37;99128.00;;;0.89;89.12
36284;BME280;56085;48.910;9.478;2023-01-31T06:09:03;99132.09;;;0.91;89.03
36284;BME280;56085;48.910;9.478;2023-01-31T06:11:28;99132.63;;;0.93;88.86
36284;BME280;56085;48.910;9.478;2023-01-31T06:13:53;99133.44;;;0.94;88.87
36284;BME280;56085;48.910;9.478;2023-01-31T06:16:21;99134.53;;;0.93;89.02
36284;BME280;56085;48.910;9.478;2023-01-31T06:18:46;99126.38;;;0.93;88.90
36284;BME280;56085;48.910;9.478;2023-01-31T06:21:11;99135.34;;;0.93;88.79
36284;BME280;56085;48.910;9.478;2023-01-31T06:23:37;99135.34;;;0.93;88.66
36284;BME280;56085;48.910;9.478;2023-01-31T06:26:02;99141.63;;;0.94;88.48
36284;BME280;56085;48.910;9.478;2023-01-31T06:28:27;99143.78;;;0.92;88.28
36284;BME280;56085;48.910;9.478;2023-01-31T06:30:52;99139.72;;;0.94;88.32
36284;BME280;56085;48.910;9.478;2023-01-31T06:33:17;99138.34;;;0.97;88.64
36284;BME280;56085;48.910;9.478;2023-01-31T06:35:43;99142.16;;;0.96;88.40
36284;BME280;56085;48.910;9.478;2023-01-31T06:38:08;99149.50;;;0.95;88.22
36284;BME280;56085;48.910;9.478;2023-01-31T06:40:33;99147.31;;;0.97;88.14
36284;BME280;56085;48.910;9.478;2023-01-31T06:43:00;99151.69;;;0.98;88.05
36284;BME280;56085;48.910;9.478;2023-01-31T06:45:25;99142.16;;;1.01;87.87
36284;BME280;56085;48.910;9.478;2023-01-31T06:47:50;99162.03;;;1.01;87.89
36284;BME280;56085;48.910;9.478;2023-01-31T06:50:16;99152.75;;;0.97;87.41
36284;BME280;56085;48.910;9.478;2023-01-31T06:52:41;99154.41;;;0.93;87.44
36284;BME280;56085;48.910;9.478;2023-01-31T06:55:07;99146.53;;;0.86;87.18
36284;BME280;56085;48.910;9.478;2023-01-31T06:57:32;99144.66;;;0.82;87.09
36284;BME280;56085;48.910;9.478;2023-01-31T06:59:57;99142.72;;;0.77;87.16
36284;BME280;56085;48.910;9.478;2023-01-31T07:02:23;99152.81;;;0.77;86.89
36284;BME280;56085;48.910;9.478;2023-01-31T07:04:48;99144.13;;;0.75;86.65
36284;BME280;56085;48.910;9.478;2023-01-31T07:07:13;99145.75;;;0.71;86.45
36284;BME280;56085;48.910;9.478;2023-01-31T07:09:38;99147.66;;;0.70;86.59
36284;BME280;56085;48.910;9.478;2023-01-31T07:12:03;99146.56;;;0.71;86.29
36284;BME280;56085;48.910;9.478;2023-01-31T07:14:29;99144.13;;;0.75;86.37
36284;BME280;56085;48.910;9.478;2023-01-31T07:16:54;99142.75;;;0.72;86.07
36284;BME280;56085;48.910;9.478;2023-01-31T07:19:19;99147.41;;;0.72;86.12
36284;BME280;56085;48.910;9.478;2023-01-31T07:21:44;99146.84;;;0.69;86.09
36284;BME280;56085;48.910;9.478;2023-01-31T07:24:11;99157.72;;;0.69;86.22
36284;BME280;56085;48.910;9.478;2023-01-31T07:26:36;99156.09;;;0.68;86.13
36284;BME280;56085;48.910;9.478;2023-01-31T07:29:01;99148.75;;;0.69;85.98
36284;BME280;56085;48.910;9.478;2023-01-31T07:31:27;99154.72;;;0.71;85.74
36284;BME280;56085;48.910;9.478;2023-01-31T07:33:53;99156.63;;;0.76;85.70
36284;BME280;56085;48.910;9.478;2023-01-31T07:36:18;99160.16;;;0.86;85.77
36284;BME280;56085;48.910;9.478;2023-01-31T07:38:48;99150.59;;;0.89;85.50
36284;BME280;56085;48.910;9.478;2023-01-31T07:41:13;99170.19;;;0.96;85.16
36284;BME280;56085;48.910;9.478;2023-01-31T07:43:38;99162.03;;;0.96;85.33
36284;BME280;56085;48.910;9.478;2023-01-31T07:46:07;99166.09;;;0.99;85.46
36284;BME280;56085;48.910;9.478;2023-01-31T07:48:35;99167.47;;;1.01;85.39
36284;BME280;56085;48.910;9.478;2023-01-31T07:51:01;99176.72;;;1.06;85.18
36284;BME280;56085;48.910;9.478;2023-01-31T07:53:30;99172.88;;;1.12;85.11
36284;BME280;56085;48.910;9.478;2023-01-31T07:56:04;99182.38;;;1.25;85.07
36284;BME280;56085;48.910;9.478;2023-01-31T07:58:29;99171.97;;;1.37;84.84
36284;BME280;56085;48.910;9.478;2023-01-31T08:00:54;99177.66;;;1.46;84.85
36284;BME280;56085;48.910;9.478;2023-01-31T08:03:38;99170.53;;;1.55;84.95
36284;BME280;56085;48.910;9.478;2023-01-31T08:06:06;99176.50;;;1.57;84.48
36284;BME280;56085;48.910;9.478;2023-01-31T08:08:32;99172.41;;;1.60;84.36
36284;BME280;56085;48.910;9.478;2023-01-31T08:10:57;99167.50;;;1.62;84.09
36284;BME280;56085;48.910;9.478;2023-01-31T08:13:22;99166.91;;;1.70;83.70
36284;BME280;56085;48.910;9.478;2023-01-31T08:15:50;99168.28;;;1.72;83.91
36284;BME280;56085;48.910;9.478;2023-01-31T08:18:16;99163.63;;;1.73;83.37
36284;BME280;56085;48.910;9.478;2023-01-31T08:20:41;99171.19;;;1.86;83.38
36284;BME280;56085;48.910;9.478;2023-01-31T08:23:06;99170.81;;;1.98;83.20
36284;BME280;56085;48.910;9.478;2023-01-31T08:25:31;99176.47;;;2.12;82.65
36284;BME280;56085;48.910;9.478;2023-01-31T08:27:57;99176.97;;;2.19;82.62
36284;BME280;56085;48.910;9.478;2023-01-31T08:30:22;99184.03;;;2.20;82.62
36284;BME280;56085;48.910;9.478;2023-01-31T08:32:47;99190.91;;;2.18;82.60
36284;BME280;56085;48.910;9.478;2023-01-31T08:35:12;99187.38;;;2.12;82.17
36284;BME280;56085;48.910;9.478;2023-01-31T08:37:38;99192.38;;;2.00;82.07
36284;BME280;56085;48.910;9.478;2023-01-31T08:40:03;99181.44;;;2.00;81.87
36284;BME280;56085;48.910;9.478;2023-01-31T08:42:28;99182.81;;;2.02;81.68
36284;BME280;56085;48.910;9.478;2023-01-31T08:44:54;99187.19;;;2.03;81.81
36284;BME280;56085;48.910;9.478;2023-01-31T08:47:19;99186.09;;;1.99;81.69
36284;BME280;56085;48.910;9.478;2023-01-31T08:49:44;99190.19;;;2.02;81.84
36284;BME280;56085;48.910;9.478;2023-01-31T08:52:09;99184.19;;;2.00;81.84
36284;BME280;56085;48.910;9.478;2023-01-31T08:54:34;99175.75;;;1.96;81.65
36284;BME280;56085;48.910;9.478;2023-01-31T08:56:59;99181.50;;;1.95;81.76
36284;BME280;56085;48.910;9.478;2023-01-31T08:59:25;99182.84;;;1.97;81.51
36284;BME280;56085;48.910;9.478;2023-01-31T09:01:50;99177.41;;;1.92;81.68
36284;BME280;56085;48.910;9.478;2023-01-31T09:04:15;99190.78;;;1.94;81.52
36284;BME280;56085;48.910;9.478;2023-01-31T09:06:40;99185.88;;;1.90;81.22
36284;BME280;56085;48.910;9.478;2023-01-31T09:09:05;99186.13;;;1.94;81.11
36284;BME280;56085;48.910;9.478;2023-01-31T09:11:30;99184.50;;;1.93;81.02
36284;BME280;56085;48.910;9.478;2023-01-31T09:13:56;99188.84;;;1.94;81.12
36284;BME280;56085;48.910;9.478;2023-01-31T09:16:21;99194.88;;;1.91;80.99
36284;BME280;56085;48.910;9.478;2023-01-31T09:18:47;99188.84;;;1.99;81.00
36284;BME280;56085;48.910;9.478;2023-01-31T09:21:13;99187.09;;;2.14;80.88
36284;BME280;56085;48.910;9.478;2023-01-31T09:23:38;99189.41;;;2.31;81.11
36284;BME280;56085;48.910;9.478;2023-01-31T09:26:04;99184.53;;;2.62;80.60
36284;BME280;56085;48.910;9.478;2023-01-31T09:28:29;99175.38;;;2.77;80.41
36284;BME280;56085;48.910;9.478;2023-01-31T09:30:54;99176.81;;;2.99;80.40
36284;BME280;56085;48.910;9.478;2023-01-31T09:33:20;99178.34;;;3.10;79.98
36284;BME280;56085;48.910;9.478;2023-01-31T09:35:59;99170.66;;;3.12;79.67
36284;BME280;56085;48.910;9.478;2023-01-31T09:38:25;99168.56;;;3.28;79.53
36284;BME280;56085;48.910;9.478;2023-01-31T09:40:50;99162.16;;;3.38;78.91
36284;BME280;56085;48.910;9.478;2023-01-31T09:43:16;99162.53;;;3.50;79.19
36284;BME280;56085;48.910;9.478;2023-01-31T09:45:43;99161.94;;;3.77;79.08
36284;BME280;56085;48.910;9.478;2023-01-31T09:48:13;99170.28;;;3.86;78.92
36284;BME280;56085;48.910;9.478;2023-01-31T09:50:40;99162.53;;;3.74;77.85
36284;BME280;56085;48.910;9.478;2023-01-31T09:53:08;99172.06;;;3.77;77.57
36284;BME280;56085;48.910;9.478;2023-01-31T10:05:36;99173.31;;;4.23;77.16
36284;BME280;56085;48.910;9.478;2023-01-31T10:10:56;99182.81;;;4.44;76.29
36284;BME280;56085;48.910;9.478;2023-01-31T10:13:36;99165.56;;;4.44;75.45
36284;BME280;56085;48.910;9.478;2023-01-31T10:18:29;99167.31;;;4.40;74.95
36284;BME280;56085;48.910;9.478;2023-01-31T10:26:05;99152.47;;;4.41;74.26
36284;BME280;56085;48.910;9.478;2023-01-31T10:28:34;99150.03;;;4.39;74.28
36284;BME280;56085;48.910;9.478;2023-01-31T10:35:51;99130.44;;;4.32;73.37
36284;BME280;56085;48.910;9.478;2023-01-31T10:38:38;99141.41;;;4.32;73.28
36284;BME280;56085;48.910;9.478;2023-01-31T10:41:16;99147.03;;;4.22;72.78
36284;BME280;56085;48.910;9.478;2023-01-31T10:43:50;99141.66;;;4.16;72.73
36284;BME280;56085;48.910;9.478;2023-01-31T10:46:17;99139.91;;;4.40;73.53
36284;BME280;56085;48.910;9.478;2023-01-31T10:48:43;99141.53;;;4.41;73.10
36284;BME280;56085;48.910;9.478;2023-01-31T10:51:28;99144.69;;;4.48;73.25
36284;BME280;56085;48.910;9.478;2023-01-31T10:56:34;99138.19;;;4.44;73.70
36284;BME280;56085;48.910;9.478;2023-01-31T10:59:04;99142.22;;;4.32;72.72
36284;BME280;56085;48.910;9.478;2023-01-31T11:01:33;99131.03;;;4.29;72.92
36284;BME280;56085;48.910;9.478;2023-01-31T11:03:59;99134.38;;;4.26;73.35
36284;BME280;56085;48.910;9.478;2023-01-31T11:06:25;99147.63;;;4.18;73.32
36284;BME280;56085;48.910;9.478;2023-01-31T11:08:54;99137.94;;;4.07;72.93
36284;BME280;56085;48.910;9.478;2023-01-31T11:11:22;99135.06;;;3.98;72.94
36284;BME280;56085;48.910;9.478;2023-01-31T11:13:55;99124.66;;;4.00;73.24
36284;BME280;56085;48.910;9.478;2023-01-31T11:16:20;99104.75;;;3.95;73.39
36284;BME280;56085;48.910;9.478;2023-01-31T11:18:47;99089.81;;;4.06;73.02
36284;BME280;56085;48.910;9.478;2023-01-31T11:21:21;99079.19;;;4.18;73.31
36284;BME280;56085;48.910;9.478;2023-01-31T11:23:46;99100.16;;;4.09;73.31
36284;BME280;56085;48.910;9.478;2023-01-31T11:26:12;99101.28;;;4.08;72.99
36284;BME280;56085;48.910;9.478;2023-01-31T11:28:49;99111.13;;;4.09;72.96
36284;BME280;56085;48.910;9.478;2023-01-31T11:31:18;99113.13;;;4.04;73.82
36284;BME280;56085;48.910;9.478;2023-01-31T11:33:45;99089.22;;;4.09;73.31
36284;BME280;56085;48.910;9.478;2023-01-31T11:36:21;99087.25;;;4.29;73.63
36284;BME280;56085;48.910;9.478;2023-01-31T11:38:50;99093.81;;;4.28;73.72
36284;BME280;56085;48.910;9.478;2023-01-31T11:43:50;99075.66;;;4.18;73.65
36284;BME280;56085;48.910;9.478;2023-01-31T11:46:15;99075.13;;;4.16;73.44
36284;BME280;56085;48.910;9.478;2023-01-31T11:48:41;99071.59;;;4.15;72.99
36284;BME280;56085;48.910;9.478;2023-01-31T11:51:06;99073.97;;;4.36;73.53
36284;BME280;56085;48.910;9.478;2023-01-31T11:56:08;99064.81;;;4.74;73.07
36284;BME280;56085;48.910;9.478;2023-01-31T11:58:37;99062.38;;;4.72;73.57
36284;BME280;56085;48.910;9.478;2023-01-31T12:03:28;99060.59;;;4.34;73.04
36284;BME280;56085;48.910;9.478;2023-01-31T12:06:01;99062.91;;;4.27;72.85
36284;BME280;56085;48.910;9.478;2023-01-31T12:08:31;99048.72;;;4.25;72.20
36284;BME280;56085;48.910;9.478;2023-01-31T12:10:57;99044.84;;;4.26;72.52
36284;BME280;56085;48.910;9.478;2023-01-31T12:13:23;99030.78;;;4.33;72.43
36284;BME280;56085;48.910;9.478;2023-01-31T12:15:58;99034.00;;;4.21;71.88
36284;BME280;56085;48.910;9.478;2023-01-31T12:18:27;99024.38;;;4.24;71.94
36284;BME280;56085;48.910;9.478;2023-01-31T12:21:12;99010.69;;;4.24;71.49
36284;BME280;56085;48.910;9.478;2023-01-31T12:33:52;99012.81;;;4.41;71.11
36284;BME280;56085;48.910;9.478;2023-01-31T12:36:30;99011.31;;;4.62;69.74
36284;BME280;56085;48.910;9.478;2023-01-31T12:39:17;98992.16;;;4.48;70.22
36284;BME280;56085;48.910;9.478;2023-01-31T12:41:59;98982.22;;;4.52;69.91
36284;BME280;56085;48.910;9.478;2023-01-31T13:03:00;98955.13;;;4.37;67.76
36284;BME280;56085;48.910;9.478;2023-01-31T13:05:39;98958.56;;;4.15;67.94
36284;BME280;56085;48.910;9.478;2023-01-31T13:08:11;98940.41;;;4.05;67.59
36284;BME280;56085;48.910;9.478;2023-01-31T13:13:24;98939.19;;;3.97;67.67
36284;BME280;56085;48.910;9.478;2023-01-31T13:15:51;98936.16;;;3.99;67.50
36284;BME280;56085;48.910;9.478;2023-01-31T13:18:19;98934.81;;;3.96;68.12
36284;BME280;56085;48.910;9.478;2023-01-31T13:20:50;98937.19;;;4.03;67.99
36284;BME280;56085;48.910;9.478;2023-01-31T13:23:22;98934.94;;;4.05;67.77
36284;BME280;56085;48.910;9.478;2023-01-31T13:25:54;98923.69;;;4.07;68.06
36284;BME280;56085;48.910;9.478;2023-01-31T13:28:22;98925.00;;;4.09;67.63
36284;BME280;56085;48.910;9.478;2023-01-31T13:30:50;98932.19;;;4.05;67.38
36284;BME280;56085;48.910;9.478;2023-01-31T13:33:28;98928.66;;;4.05;67.05
36284;BME280;56085;48.910;9.478;2023-01-31T13:36:05;98942.03;;;4.06;67.60
36284;BME280;56085;48.910;9.478;2023-01-31T13:38:33;98941.09;;;3.97;67.59
36284;BME280;56085;48.910;9.478;2023-01-31T13:41:01;98946.88;;;3.95;67.20
36284;BME280;56085;48.910;9.478;2023-01-31T13:43:26;98947.69;;;3.96;67.11
36284;BME280;56085;48.910;9.478;2023-01-31T13:45:53;98956.59;;;4.01;66.72
36284;BME280;56085;48.910;9.478;2023-01-31T13:48:28;98958.66;;;4.10;66.69
36284;BME280;56085;48.910;9.478;2023-01-31T13:51:16;98954.91;;;4.06;67.06
36284;BME280;56085;48.910;9.478;2023-01-31T13:53:48;98953.72;;;4.12;66.56
36284;BME280;56085;48.910;9.478;2023-01-31T13:56:18;98958.28;;;4.16;67.07
36284;BME280;56085;48.910;9.478;2023-01-31T13:58:47;98955.13;;;4.23;66.76
36284;BME280;56085;48.910;9.478;2023-01-31T14:01:17;98951.34;;;4.19;66.57
36284;BME280;56085;48.910;9.478;2023-01-31T14:06:52;98926.03;;;4.13;66.62
36284;BME280;56085;48.910;9.478;2023-01-31T14:09:22;98910.00;;;4.07;66.61
36284;BME280;56085;48.910;9.478;2023-01-31T14:11:48;98905.06;;;4.23;66.17
36284;BME280;56085;48.910;9.478;2023-01-31T14:17:01;98926.91;;;4.78;66.28
36284;BME280;56085;48.910;9.478;2023-01-31T14:19:33;98919.72;;;4.68;66.07
36284;BME280;56085;48.910;9.478;2023-01-31T14:37:47;98883.16;;;4.23;64.35
36284;BME280;56085;48.910;9.478;2023-01-31T14:40:26;98901.09;;;4.15;64.30
36284;BME280;56085;48.910;9.478;2023-01-31T14:45:50;98906.84;;;3.99;65.03
36284;BME280;56085;48.910;9.478;2023-01-31T14:51:06;98908.19;;;4.02;65.09
36284;BME280;56085;48.910;9.478;2023-01-31T14:53:42;98913.66;;;4.02;64.67
36284;BME280;56085;48.910;9.478;2023-01-31T14:58:50;98887.59;;;3.91;65.41
36284;BME280;56085;48.910;9.478;2023-01-31T15:01:17;98896.28;;;3.93;64.73
36284;BME280;56085;48.910;9.478;2023-01-31T15:03:47;98901.88;;;3.88;64.87
36284;BME280;56085;48.910;9.478;2023-01-31T15:06:14;98917.06;;;3.80;64.84
36284;BME280;56085;48.910;9.478;2023-01-31T15:08:42;98901.75;;;3.79;64.32
36284;BME280;56085;48.910;9.478;2023-01-31T15:13:53;98916.84;;;3.76;64.63
36284;BME280;56085;48.910;9.478;2023-01-31T15:16:20;98933.25;;;3.76;65.04
36284;BME280;56085;48.910;9.478;2023-01-31T15:18:47;98921.81;;;3.74;65.29
36284;BME280;56085;48.910;9.478;2023-01-31T15:21:18;98922.91;;;3.73;64.79
36284;BME280;56085;48.910;9.478;2023-01-31T15:23:44;98927.06;;;3.71;65.22